This is the latest recevied weather packets stored in our database for station/object VU25RK-13. If no packets are shown the sender has not sent any weather packets the latest 10 day(s).
| Time | Temp. | Humidity | Pressure | Rain* | Wind** | Luminosity | Snow |
|---|---|---|---|---|---|---|---|
| 1778079231 | 25.56° C | 64% | 1011.2 hPa | - | - | - | - |
| 1778078031 | 26.11° C | 64% | 1011.2 hPa | - | - | - | - |
| 1778076830 | 26.67° C | 54% | 1010.3 hPa | - | - | - | - |
| 1778075501 | 25.56° C | 58% | 1009.9 hPa | - | - | - | - |
| 1778074302 | 25° C | 58% | 1009.9 hPa | - | - | - | - |
| 1778071421 | 25.56° C | 65% | 1008.6 hPa | - | - | - | - |
| 1778070220 | 26.11° C | 65% | 1008.6 hPa | - | - | - | - |
| 1778069020 | 27.22° C | 53% | 1008.7 hPa | - | - | - | - |
| 1778065963 | 32.78° C | 33% | 1008.4 hPa | - | - | - | - |
| 1778064258 | 33.33° C | 33% | 1008.4 hPa | - | - | - | - |
| 1778063057 | 33.33° C | 33% | 1008.4 hPa | - | - | - | - |
| 1778061883 | 32.78° C | 33% | 1008.9 hPa | - | - | - | - |
| 1778060657 | 32.78° C | 33% | 1008.9 hPa | - | - | - | - |
| 1778056841 | 33.33° C | 31% | 1010.2 hPa | - | - | - | - |
| 1778055641 | 33.33° C | 31% | 1010.2 hPa | - | - | - | - |
| 1778054443 | 33.33° C | 29% | 1011.1 hPa | - | - | - | - |
| 1778052978 | 33.33° C | 29% | 1011.1 hPa | - | - | - | - |
| 1778052482 | 33.33° C | 29% | 1011.1 hPa | - | - | - | - |
| 1778051282 | 33.33° C | 30% | 1012.1 hPa | - | - | - | - |
| 1778050081 | 32.78° C | 30% | 1012.1 hPa | - | - | - | - |
| 1778048881 | 32.22° C | 30% | 1012.1 hPa | - | - | - | - |
| 1777990708 | 29.44° C | 38% | 1011.7 hPa | - | - | - | - |
| 1777989507 | 29.44° C | 37% | 1011.2 hPa | - | - | - | - |
| 1777988306 | 29.44° C | 37% | 1011.2 hPa | - | - | - | - |
| 1777987106 | 30.56° C | 35% | 1011.7 hPa | - | - | - | - |
* Rain since midnight (hover to see other rain measurements)
** Current wind speed in m/s (hover to see current wind gust speed)